Detmold, Texas
Current Conditions -  °F | °C
As of 11:13 AM on Friday 28 Nov 2014 (Local Time) from KGRK Reporting Station
Broken Clouds Broken Clouds  
Wind Chill: 64°   Ceiling: 2400
Heat Index: 64°   Visibility: 10mi
Dew Point: 52°   Wind: 15mph
Humidity: 64%   Direction: 190°S
Pressure: 30.24"   Gusts: 22mph
Location:  30.5951°N, 97.1399°W
Report Text: KGRK 281713Z AUTO 19013G19KT 10SM BKN024 18/11 A3024 RMK AO2 BKN V SCT
Loading
Personal Weather Stations






























Interactive Weather Map New forecast layout! Learn more

10-Day Weather Forecast

Advertisements
Track Severe Weather on mobile